createdAt,value
2019-02-10T00:00:37.827Z,6.90
2019-02-10T00:03:18.183Z,6.90
2019-02-10T00:05:59.203Z,6.90
2019-02-10T00:11:29.315Z,6.80
2019-02-10T00:16:54.804Z,6.80
2019-02-10T00:19:35.047Z,6.80
2019-02-10T00:22:16.644Z,6.80
2019-02-10T00:24:57.335Z,6.70
2019-02-10T00:27:37.826Z,6.70
2019-02-10T00:35:47.268Z,6.60
2019-02-10T00:38:27.703Z,6.60
2019-02-10T00:43:57.379Z,6.60
2019-02-10T00:49:23.675Z,6.50
2019-02-10T00:52:07.390Z,6.40
2019-02-10T00:54:48.226Z,6.40
2019-02-10T01:25:32.699Z,6.70
2019-02-10T01:28:13.391Z,6.70
2019-02-10T01:30:54.139Z,6.70
2019-02-10T01:33:34.630Z,6.80
2019-02-10T01:36:15.255Z,6.70
2019-02-10T01:38:55.807Z,6.70
2019-02-10T01:41:36.738Z,6.70
2019-02-10T01:44:17.257Z,6.70
2019-02-10T01:46:57.875Z,6.70
2019-02-10T01:49:38.559Z,6.70
2019-02-10T01:52:19.358Z,6.70
2019-02-10T01:55:00.450Z,6.70
2019-02-10T01:57:40.767Z,6.70
2019-02-10T02:00:21.370Z,6.60
2019-02-10T02:03:01.959Z,6.60
2019-02-10T02:05:43.087Z,6.60
2019-02-10T02:08:24.161Z,6.60
2019-02-10T02:11:04.795Z,6.60
2019-02-10T02:13:45.183Z,6.60
2019-02-10T02:16:25.911Z,6.60
2019-02-10T02:19:06.211Z,6.60
2019-02-10T02:21:46.943Z,6.60
2019-02-10T02:24:27.959Z,6.60
2019-02-10T02:27:08.265Z,6.60
2019-02-10T02:29:48.818Z,6.70
2019-02-10T02:32:29.457Z,6.70
2019-02-10T02:35:08.323Z,6.70
2019-02-10T02:37:56.173Z,6.70
2019-02-10T02:40:44.020Z,6.70
2019-02-10T02:43:32.144Z,6.70
2019-02-10T02:46:19.990Z,6.70
2019-02-10T02:49:07.838Z,6.70
2019-02-10T02:51:55.691Z,6.70
2019-02-10T02:54:43.531Z,6.70
2019-02-10T02:57:31.835Z,6.70
2019-02-10T03:00:19.675Z,6.70
2019-02-10T03:03:01.078Z,6.70
2019-02-10T03:05:41.632Z,6.80
2019-02-10T03:08:21.920Z,6.80
2019-02-10T03:11:02.749Z,6.80
2019-02-10T03:13:43.898Z,6.80
2019-02-10T03:16:24.942Z,6.80
2019-02-10T03:19:05.931Z,6.80
2019-02-10T03:21:47.227Z,6.80
2019-02-10T03:24:28.307Z,6.90
2019-02-10T03:27:09.007Z,7.00
2019-02-10T03:29:48.163Z,7.00
2019-02-10T03:32:36.024Z,7.00
2019-02-10T03:35:24.107Z,7.00
2019-02-10T03:38:11.955Z,7.00
2019-02-10T03:40:59.786Z,7.00
2019-02-10T03:43:47.666Z,7.00
2019-02-10T03:46:35.504Z,7.00
2019-02-10T03:49:23.367Z,7.00
2019-02-10T03:52:11.191Z,7.00
2019-02-10T03:54:59.044Z,7.00
2019-02-10T03:57:46.882Z,7.00
2019-02-10T04:00:34.955Z,7.00
2019-02-10T04:03:22.803Z,7.00
2019-02-10T04:06:10.642Z,7.00
2019-02-10T04:08:58.723Z,7.00
2019-02-10T04:11:46.563Z,7.00
2019-02-10T04:14:34.414Z,7.00
2019-02-10T04:17:22.256Z,7.00
2019-02-10T04:20:10.347Z,6.90
2019-02-10T04:22:58.191Z,6.90
2019-02-10T04:25:46.034Z,6.90
2019-02-10T04:28:33.879Z,6.90
2019-02-10T04:34:10.727Z,6.90
2019-02-10T04:36:58.588Z,6.90
2019-02-10T04:39:46.436Z,6.90
2019-02-10T04:42:34.275Z,7.00
2019-02-10T04:45:22.132Z,7.00
2019-02-10T04:48:10.219Z,7.00
2019-02-10T04:50:58.067Z,7.00
2019-02-10T04:53:45.928Z,7.00
2019-02-10T04:59:22.790Z,7.00
2019-02-10T05:02:03.286Z,7.00
2019-02-10T05:07:18.459Z,7.10
2019-02-10T05:09:47.038Z,7.00
2019-02-10T05:12:16.056Z,7.00
2019-02-10T05:14:45.459Z,7.00
2019-02-10T05:17:14.007Z,7.00
2019-02-10T05:19:42.598Z,7.10
2019-02-10T05:22:11.419Z,7.00
2019-02-10T05:24:40.307Z,7.00
2019-02-10T05:27:09.405Z,7.10
2019-02-10T05:29:38.291Z,7.10
2019-02-10T05:32:06.847Z,7.00
2019-02-10T05:34:35.426Z,7.00
2019-02-10T05:37:04.251Z,7.00
2019-02-10T05:39:32.810Z,7.00
2019-02-10T05:42:01.387Z,7.00
2019-02-10T05:44:30.719Z,7.00
2019-02-10T05:46:59.920Z,7.00
2019-02-10T05:49:28.464Z,7.00
2019-02-10T05:51:57.051Z,7.00
2019-02-10T05:54:25.871Z,7.10
2019-02-10T05:56:54.431Z,7.10
2019-02-10T05:59:23.354Z,7.10
2019-02-10T06:02:22.355Z,7.10
2019-02-10T06:04:51.574Z,7.20
2019-02-10T06:07:20.378Z,7.20
2019-02-10T06:09:48.975Z,7.20
2019-02-10T06:12:17.576Z,7.20
2019-02-10T06:14:46.391Z,7.20
2019-02-10T06:17:14.947Z,7.20
2019-02-10T06:19:43.570Z,7.20
2019-02-10T06:22:12.347Z,7.20
2019-02-10T06:24:41.134Z,7.20
2019-02-10T06:27:09.923Z,7.20
2019-02-10T06:29:38.815Z,7.20
2019-02-10T06:32:07.332Z,7.20
2019-02-10T06:34:35.940Z,7.10
2019-02-10T06:37:04.538Z,7.20
2019-02-10T06:39:33.355Z,7.20
2019-02-10T06:42:01.935Z,7.20
2019-02-10T06:44:30.541Z,7.20
2019-02-10T06:46:59.082Z,7.20
2019-02-10T06:49:27.647Z,7.30
2019-02-10T06:51:56.478Z,7.30
2019-02-10T06:54:25.030Z,7.30
2019-02-10T06:56:53.630Z,7.30
2019-02-10T06:59:29.722Z,7.40
2019-02-10T07:02:03.378Z,7.40
2019-02-10T07:04:32.469Z,7.50
2019-02-10T07:07:01.001Z,7.50
2019-02-10T07:09:29.542Z,7.60
2019-02-10T07:11:58.590Z,7.60
2019-02-10T07:14:35.856Z,7.70
2019-02-10T07:17:38.736Z,7.70
2019-02-10T07:20:53.783Z,7.80
2019-02-10T07:24:06.093Z,7.80
2019-02-10T07:26:54.327Z,7.90
2019-02-10T07:30:35.307Z,7.90
2019-02-10T07:33:07.612Z,7.90
2019-02-10T07:36:03.137Z,8.00
2019-02-10T07:38:49.538Z,8.00
2019-02-10T07:41:38.091Z,8.00
2019-02-10T07:44:40.591Z,8.10
2019-02-10T07:47:28.844Z,8.20
2019-02-10T07:50:26.927Z,8.20
2019-02-10T07:53:18.330Z,8.20
2019-02-10T07:56:11.559Z,8.20
2019-02-10T07:59:36.898Z,8.20
2019-02-10T08:02:53.017Z,8.20
2019-02-10T08:05:56.970Z,8.20
2019-02-10T08:08:46.304Z,8.20
2019-02-10T08:11:29.834Z,8.20
2019-02-10T08:14:34.362Z,8.20
2019-02-10T08:17:45.866Z,8.20
2019-02-10T08:20:40.649Z,8.20
2019-02-10T08:23:21.623Z,8.20
2019-02-10T08:26:19.090Z,8.20
2019-02-10T08:29:29.428Z,8.30
2019-02-10T08:32:48.231Z,8.20
2019-02-10T08:35:46.390Z,8.30
2019-02-10T08:38:54.374Z,8.30
2019-02-10T08:41:51.451Z,8.30
2019-02-10T08:44:29.107Z,8.40
2019-02-10T08:47:14.719Z,8.40
2019-02-10T08:50:31.606Z,8.40
2019-02-10T08:53:10.634Z,8.40
2019-02-10T08:55:39.202Z,8.50
2019-02-10T08:58:07.775Z,8.60
2019-02-10T09:00:36.714Z,8.70
2019-02-10T09:03:05.262Z,8.70
2019-02-10T09:05:34.113Z,8.70
2019-02-10T09:08:02.774Z,8.90
2019-02-10T09:10:31.618Z,9.70
2019-02-10T09:13:00.603Z,10.50
2019-02-10T09:15:29.182Z,11.20
2019-02-10T09:17:58.726Z,11.80
2019-02-10T09:20:27.514Z,12.10
2019-02-10T09:22:56.074Z,12.30
2019-02-10T09:25:24.891Z,11.90
2019-02-10T09:27:53.478Z,11.20
2019-02-10T09:30:22.303Z,10.80
2019-02-10T09:32:50.906Z,10.50
2019-02-10T09:35:19.506Z,10.20
2019-02-10T09:37:48.079Z,10.10
2019-02-10T09:40:16.674Z,10.00
2019-02-10T09:42:45.497Z,9.90
2019-02-10T09:45:14.034Z,9.90
2019-02-10T09:47:42.610Z,9.90
2019-02-10T09:50:16.928Z,9.90
2019-02-10T09:52:45.535Z,9.90
2019-02-10T09:55:14.178Z,9.90
2019-02-10T09:57:43.179Z,9.90
2019-02-10T10:00:13.290Z,9.90
2019-02-10T10:02:42.024Z,9.80
2019-02-10T10:05:11.182Z,9.80
2019-02-10T10:07:40.100Z,9.70
2019-02-10T10:10:10.151Z,9.70
2019-02-10T10:12:38.711Z,9.70
2019-02-10T10:15:08.895Z,9.70
2019-02-10T10:17:37.851Z,9.70
2019-02-10T10:20:08.312Z,9.70
2019-02-10T10:22:36.978Z,9.70
2019-02-10T10:25:05.694Z,9.70
2019-02-10T10:27:34.862Z,9.70
2019-02-10T10:30:03.478Z,9.70
2019-02-10T10:32:31.994Z,9.60
2019-02-10T10:35:00.507Z,9.60
2019-02-10T10:37:29.289Z,9.50
2019-02-10T10:39:57.802Z,9.40
2019-02-10T10:42:26.335Z,9.40
2019-02-10T10:44:54.851Z,9.40
2019-02-10T10:47:23.392Z,9.30
2019-02-10T10:49:51.907Z,9.30
2019-02-10T10:52:20.434Z,9.30
2019-02-10T10:54:48.946Z,9.30
2019-02-10T10:57:17.475Z,9.30
2019-02-10T10:59:46.329Z,9.30
2019-02-10T11:02:15.206Z,9.30
2019-02-10T11:04:43.723Z,9.30
2019-02-10T11:07:32.023Z,9.40
2019-02-10T11:10:20.098Z,9.40
2019-02-10T11:13:07.948Z,9.30
2019-02-10T11:15:57.250Z,9.40
2019-02-10T11:18:45.567Z,9.40
2019-02-10T11:21:33.406Z,9.50
2019-02-10T11:24:28.543Z,9.50
2019-02-10T11:27:11.291Z,9.50
2019-02-10T11:29:59.130Z,9.60
2019-02-10T11:32:46.979Z,9.60
2019-02-10T11:35:34.834Z,9.70
2019-02-10T11:38:22.669Z,9.70
2019-02-10T11:41:10.739Z,9.80
2019-02-10T11:43:58.575Z,9.80
2019-02-10T11:46:46.418Z,9.80
2019-02-10T11:49:34.266Z,9.90
2019-02-10T11:52:22.115Z,9.90
2019-02-10T11:55:10.235Z,9.90
2019-02-10T11:57:58.087Z,9.90
2019-02-10T12:00:46.154Z,9.90
2019-02-10T12:03:27.079Z,9.90
2019-02-10T12:06:07.814Z,9.90
2019-02-10T12:08:48.607Z,9.90
2019-02-10T12:11:29.237Z,9.90
2019-02-10T12:14:09.826Z,9.80
2019-02-10T12:16:50.492Z,9.90
2019-02-10T12:19:31.623Z,9.90
2019-02-10T12:24:58.495Z,10.00
2019-02-10T12:33:12.684Z,10.00
2019-02-10T12:38:43.132Z,10.00
2019-02-10T12:44:08.986Z,10.10
2019-02-10T13:00:37.946Z,10.10
2019-02-10T13:06:07.881Z,10.10
2019-02-10T13:08:48.458Z,10.10
2019-02-10T13:28:24.814Z,10.30
2019-02-10T13:31:05.495Z,10.30
2019-02-10T13:33:46.018Z,10.40
2019-02-10T13:36:26.830Z,10.40
2019-02-10T13:39:07.693Z,10.40
2019-02-10T13:41:48.523Z,10.30
2019-02-10T13:44:29.135Z,10.30
2019-02-10T13:47:10.016Z,10.20
2019-02-10T13:49:50.627Z,10.20
2019-02-10T13:52:30.890Z,10.20
2019-02-10T13:55:11.283Z,10.20
2019-02-10T13:57:51.997Z,10.20
2019-02-10T14:00:32.470Z,10.20
2019-02-10T14:03:13.174Z,10.20
2019-02-10T14:05:53.946Z,10.20
2019-02-10T14:08:34.607Z,10.30
2019-02-10T14:11:15.055Z,10.20
2019-02-10T14:13:55.947Z,10.20
2019-02-10T14:16:36.503Z,10.20
2019-02-10T14:19:15.427Z,10.20
2019-02-10T14:22:03.279Z,10.20
2019-02-10T14:24:51.458Z,10.10
2019-02-10T14:27:39.519Z,10.10
2019-02-10T14:30:27.372Z,10.00
2019-02-10T14:33:15.218Z,10.00
2019-02-10T14:36:03.143Z,10.00
2019-02-10T14:38:50.987Z,10.00
2019-02-10T14:41:38.846Z,10.00
2019-02-10T14:44:26.707Z,9.90
2019-02-10T14:47:14.792Z,9.90
2019-02-10T14:50:02.640Z,9.80
2019-02-10T14:52:50.483Z,9.80
2019-02-10T14:55:38.671Z,9.80
2019-02-10T14:58:33.679Z,9.70
2019-02-10T15:01:14.352Z,9.70
2019-02-10T15:03:54.721Z,9.70
2019-02-10T15:06:35.388Z,9.60
2019-02-10T15:09:15.691Z,9.50
2019-02-10T15:11:56.638Z,9.50
2019-02-10T15:14:37.121Z,9.40
2019-02-10T15:17:17.673Z,9.40
2019-02-10T15:19:58.237Z,9.40
2019-02-10T15:22:38.712Z,9.40
2019-02-10T15:25:19.542Z,9.40
2019-02-10T15:28:00.735Z,9.40
2019-02-10T15:30:41.955Z,9.30
2019-02-10T15:33:22.611Z,9.30
2019-02-10T15:36:03.015Z,9.20
2019-02-10T15:38:43.864Z,9.20
2019-02-10T15:41:24.487Z,9.10
2019-02-10T15:44:05.003Z,9.10
2019-02-10T15:46:45.311Z,9.20
2019-02-10T15:49:26.180Z,9.20
2019-02-10T15:52:06.454Z,9.30
2019-02-10T15:54:47.084Z,9.30
2019-02-10T15:57:28.022Z,9.30
2019-02-10T16:00:09.748Z,9.20
2019-02-10T16:02:50.096Z,9.20
2019-02-10T16:05:30.347Z,9.10
2019-02-10T16:08:11.119Z,9.10
2019-02-10T16:10:57.969Z,9.10
2019-02-10T16:16:16.714Z,9.00
2019-02-10T16:18:57.503Z,8.90
2019-02-10T16:21:38.051Z,8.90
2019-02-10T16:27:08.214Z,8.80
2019-02-10T16:29:48.898Z,8.70
2019-02-10T16:32:29.575Z,8.70
2019-02-10T16:35:10.490Z,8.70
2019-02-10T16:37:51.443Z,8.60
2019-02-10T16:40:32.151Z,8.60
2019-02-10T16:43:12.839Z,8.50
2019-02-10T16:45:53.928Z,8.40
2019-02-10T16:48:33.159Z,8.40
2019-02-10T16:51:21.483Z,8.30
2019-02-10T16:54:09.327Z,8.30
2019-02-10T16:56:57.175Z,8.20
2019-02-10T16:59:45.023Z,8.10
2019-02-10T17:07:46.283Z,8.10
2019-02-10T17:10:15.211Z,8.10
2019-02-10T17:12:43.767Z,8.00
2019-02-10T17:15:12.686Z,8.00
2019-02-10T17:17:41.250Z,8.00
2019-02-10T17:20:10.355Z,7.90
2019-02-10T17:22:38.914Z,7.90
2019-02-10T17:25:09.299Z,7.90
2019-02-10T17:27:38.538Z,7.90
2019-02-10T17:30:07.815Z,7.90
2019-02-10T17:32:36.439Z,7.90
2019-02-10T17:35:05.485Z,7.80
2019-02-10T17:37:34.106Z,7.80
2019-02-10T17:40:02.739Z,7.80
2019-02-10T17:42:31.270Z,7.80
2019-02-10T17:45:00.238Z,7.70
2019-02-10T17:47:29.091Z,7.70
2019-02-10T17:49:57.955Z,7.70
2019-02-10T17:52:31.967Z,7.60
2019-02-10T17:54:57.467Z,7.60
2019-02-10T17:57:26.054Z,7.60
2019-02-10T17:59:55.016Z,7.50
2019-02-10T18:02:23.878Z,7.50
2019-02-10T18:04:52.471Z,7.40
2019-02-10T18:07:21.010Z,7.40
2019-02-10T18:09:49.828Z,7.40
2019-02-10T18:12:18.439Z,7.40
2019-02-10T18:15:09.183Z,7.30
2019-02-10T18:17:52.882Z,7.30
2019-02-10T18:20:35.830Z,7.40
2019-02-10T18:23:13.368Z,7.30
2019-02-10T18:25:49.119Z,7.30
2019-02-10T18:28:28.763Z,7.30
2019-02-10T18:31:14.961Z,7.30
2019-02-10T18:34:11.807Z,7.30
2019-02-10T18:37:02.475Z,7.30
2019-02-10T18:39:39.078Z,7.30
2019-02-10T18:42:30.126Z,7.30
2019-02-10T18:45:21.366Z,7.30
2019-02-10T18:48:08.038Z,7.30
2019-02-10T18:50:56.462Z,7.30
2019-02-10T18:53:43.274Z,7.30
2019-02-10T18:56:21.027Z,7.30
2019-02-10T18:58:59.560Z,7.30
2019-02-10T19:01:40.009Z,7.30
2019-02-10T19:04:26.341Z,7.30
2019-02-10T19:07:13.060Z,7.30
2019-02-10T19:10:01.202Z,7.30
2019-02-10T19:12:58.162Z,7.30
2019-02-10T19:15:54.810Z,7.20
2019-02-10T19:18:31.050Z,7.30
2019-02-10T19:21:31.727Z,7.20
2019-02-10T19:24:19.731Z,7.20
2019-02-10T19:26:57.433Z,7.20
2019-02-10T19:29:42.974Z,7.20
2019-02-10T19:32:18.546Z,7.20
2019-02-10T19:35:06.907Z,7.20
2019-02-10T19:37:53.219Z,7.20
2019-02-10T19:40:40.854Z,7.20
2019-02-10T19:43:39.094Z,7.20
2019-02-10T19:46:31.159Z,7.20
2019-02-10T19:49:20.514Z,7.20
2019-02-10T19:52:09.367Z,7.30
2019-02-10T19:54:59.534Z,7.20
2019-02-10T19:57:39.322Z,7.20
2019-02-10T20:00:15.788Z,7.20
2019-02-10T20:03:09.620Z,7.20
2019-02-10T20:05:49.011Z,7.20
2019-02-10T20:08:25.891Z,7.20
2019-02-10T20:11:07.022Z,7.20
2019-02-10T20:13:41.682Z,7.10
2019-02-10T20:16:29.331Z,7.10
2019-02-10T20:19:23.603Z,7.10
2019-02-10T20:22:06.554Z,7.10
2019-02-10T20:24:54.298Z,7.00
2019-02-10T20:27:54.218Z,7.00
2019-02-10T20:30:39.586Z,7.00
2019-02-10T20:33:22.569Z,7.00
2019-02-10T20:36:08.651Z,6.90
2019-02-10T20:38:55.655Z,7.00
2019-02-10T20:41:33.043Z,6.90
2019-02-10T20:44:29.734Z,6.90
2019-02-10T20:47:19.774Z,6.90
2019-02-10T20:50:06.469Z,6.90
2019-02-10T20:52:46.301Z,6.90
2019-02-10T20:55:31.122Z,6.90
2019-02-10T20:58:13.484Z,6.90
2019-02-10T21:00:59.387Z,6.90
2019-02-10T21:03:34.667Z,6.80
2019-02-10T21:06:11.614Z,6.90
2019-02-10T21:08:47.814Z,6.80
2019-02-10T21:11:51.115Z,6.80
2019-02-10T21:14:37.090Z,6.80
2019-02-10T21:17:31.257Z,6.80
2019-02-10T21:20:20.599Z,6.80
2019-02-10T21:22:56.158Z,6.80
2019-02-10T21:25:52.406Z,6.80
2019-02-10T21:28:45.754Z,6.80
2019-02-10T21:31:43.456Z,6.80
2019-02-10T21:34:19.059Z,6.80
2019-02-10T21:37:09.771Z,6.90
2019-02-10T21:39:57.733Z,6.80
2019-02-10T21:42:45.398Z,6.90
2019-02-10T21:45:31.740Z,6.80
2019-02-10T21:48:18.691Z,6.90
2019-02-10T21:50:47.783Z,6.90
2019-02-10T21:53:17.395Z,6.90
2019-02-10T21:55:45.943Z,6.90
2019-02-10T21:58:14.874Z,6.90
2019-02-10T22:00:43.414Z,6.90
2019-02-10T22:03:12.295Z,6.90
2019-02-10T22:05:40.886Z,6.90
2019-02-10T22:08:09.601Z,6.90
2019-02-10T22:10:38.499Z,6.90
2019-02-10T22:13:07.055Z,6.90
2019-02-10T22:15:35.661Z,6.90
2019-02-10T22:18:04.471Z,6.90
2019-02-10T22:20:33.488Z,6.90
2019-02-10T22:23:02.354Z,6.90
2019-02-10T22:25:30.885Z,6.90
2019-02-10T22:27:59.873Z,6.90
2019-02-10T22:30:29.123Z,6.90
2019-02-10T22:32:57.670Z,6.80
2019-02-10T22:35:26.498Z,6.80
2019-02-10T22:37:55.051Z,6.80
2019-02-10T22:40:23.631Z,6.80
2019-02-10T22:42:52.220Z,6.80
2019-02-10T22:45:21.339Z,6.80
2019-02-10T22:47:50.186Z,6.70
2019-02-10T22:50:19.023Z,6.70
2019-02-10T22:52:47.817Z,6.70
2019-02-10T22:55:16.358Z,6.70
2019-02-10T22:57:44.946Z,6.70
2019-02-10T23:00:47.284Z,6.60
2019-02-10T23:03:16.758Z,6.60
2019-02-10T23:05:45.347Z,6.60
2019-02-10T23:08:33.191Z,6.60
2019-02-10T23:11:21.026Z,6.60
2019-02-10T23:14:08.874Z,6.60
2019-02-10T23:16:56.943Z,6.60
2019-02-10T23:19:44.790Z,6.50
2019-02-10T23:22:32.862Z,6.50
2019-02-10T23:25:20.713Z,6.50
2019-02-10T23:28:08.546Z,6.50
2019-02-10T23:30:56.390Z,6.50
2019-02-10T23:33:44.251Z,6.50
2019-02-10T23:36:32.082Z,6.40
2019-02-10T23:39:20.298Z,6.40
2019-02-10T23:42:08.140Z,6.40
2019-02-10T23:44:56.239Z,6.40
2019-02-10T23:47:44.075Z,6.40
2019-02-10T23:50:32.163Z,6.40
2019-02-10T23:53:20.002Z,6.40
2019-02-10T23:56:08.191Z,6.40
2019-02-10T23:58:56.034Z,6.40
